createdAt,value
2022-08-19T00:02:00.797Z,21.31
2022-08-19T00:04:35.313Z,21.26
2022-08-19T00:07:06.746Z,21.23
2022-08-19T00:09:35.143Z,21.18
2022-08-19T00:12:04.973Z,21.15
2022-08-19T00:14:33.111Z,21.07
2022-08-19T00:17:03.019Z,21.00
2022-08-19T00:19:31.577Z,20.95
2022-08-19T00:21:59.308Z,20.91
2022-08-19T00:24:27.690Z,20.85
2022-08-19T00:26:57.142Z,20.84
2022-08-19T00:29:26.777Z,20.85
2022-08-19T00:31:56.629Z,20.87
2022-08-19T00:34:27.152Z,20.89
2022-08-19T00:36:56.616Z,20.91
2022-08-19T00:39:24.495Z,20.92
2022-08-19T00:41:52.455Z,20.94
2022-08-19T00:44:27.933Z,20.94
2022-08-19T00:46:59.518Z,20.95
2022-08-19T00:49:37.363Z,20.97
2022-08-19T00:52:16.165Z,20.94
2022-08-19T00:54:47.827Z,20.93
2022-08-19T00:57:19.060Z,20.92
2022-08-19T00:59:58.798Z,20.91
2022-08-19T01:02:21.292Z,20.90
2022-08-19T01:04:48.783Z,20.88
2022-08-19T01:07:19.504Z,20.85
2022-08-19T01:09:47.215Z,20.82
2022-08-19T01:12:15.805Z,20.77
2022-08-19T01:14:44.298Z,20.76
2022-08-19T01:17:13.029Z,20.73
2022-08-19T01:19:44.821Z,20.70
2022-08-19T01:22:39.571Z,20.66
2022-08-19T01:25:14.745Z,20.61
2022-08-19T01:27:44.470Z,20.59
2022-08-19T01:30:22.104Z,20.58
2022-08-19T01:32:51.168Z,20.58
2022-08-19T01:35:19.601Z,20.56
2022-08-19T01:38:00.911Z,20.59
2022-08-19T01:40:33.664Z,20.62
2022-08-19T01:43:03.472Z,20.64
2022-08-19T01:45:37.794Z,20.67
2022-08-19T01:48:10.555Z,20.68
2022-08-19T01:50:55.090Z,20.73
2022-08-19T01:53:30.503Z,20.79
2022-08-19T01:56:01.362Z,20.85
2022-08-19T01:58:50.889Z,20.88
2022-08-19T02:01:20.919Z,20.92
2022-08-19T02:03:52.403Z,20.91
2022-08-19T02:06:21.917Z,20.89
2022-08-19T02:08:51.383Z,20.86
2022-08-19T02:11:26.724Z,20.85
2022-08-19T02:13:56.058Z,20.82
2022-08-19T02:16:24.742Z,20.77
2022-08-19T02:18:52.577Z,20.70
2022-08-19T02:21:23.246Z,20.64
2022-08-19T02:23:51.821Z,20.59
2022-08-19T02:26:20.785Z,20.53
2022-08-19T02:28:49.036Z,20.47
2022-08-19T02:31:21.334Z,20.42
2022-08-19T02:33:49.360Z,20.37
2022-08-19T02:36:20.553Z,20.34
2022-08-19T02:38:54.275Z,20.29
2022-08-19T02:41:23.826Z,20.28
2022-08-19T02:44:22.734Z,20.25
2022-08-19T02:46:32.363Z,20.26
2022-08-19T02:49:08.552Z,20.27
2022-08-19T02:51:42.425Z,20.27
2022-08-19T02:54:18.748Z,20.28
2022-08-19T02:56:52.313Z,20.31
2022-08-19T02:59:30.440Z,20.33
2022-08-19T03:02:02.337Z,20.36
2022-08-19T03:04:35.716Z,20.38
2022-08-19T03:07:10.680Z,20.39
2022-08-19T03:09:39.966Z,20.40
2022-08-19T03:12:07.849Z,20.39
2022-08-19T03:14:36.746Z,20.38
2022-08-19T03:17:05.488Z,20.36
2022-08-19T03:19:33.256Z,20.32
2022-08-19T03:22:01.232Z,20.26
2022-08-19T03:24:29.005Z,20.17
2022-08-19T03:27:00.146Z,20.11
2022-08-19T03:29:31.683Z,20.03
2022-08-19T03:32:04.869Z,19.96
2022-08-19T03:34:35.026Z,19.91
2022-08-19T03:37:07.614Z,19.85
2022-08-19T03:39:38.628Z,19.79
2022-08-19T03:42:32.904Z,19.75
2022-08-19T03:44:38.081Z,19.71
2022-08-19T03:47:06.015Z,19.66
2022-08-19T03:49:35.668Z,19.66
2022-08-19T03:52:07.303Z,19.66
2022-08-19T03:54:35.894Z,19.70
2022-08-19T03:57:04.417Z,19.75
2022-08-19T03:59:35.739Z,19.76
2022-08-19T04:02:09.479Z,19.84
2022-08-19T04:04:40.424Z,19.89
2022-08-19T04:07:09.856Z,19.94
2022-08-19T04:09:37.740Z,19.98
2022-08-19T04:12:06.555Z,20.02
2022-08-19T04:14:35.634Z,20.03
2022-08-19T04:17:07.234Z,20.04
2022-08-19T04:19:36.436Z,20.04
2022-08-19T04:22:04.493Z,20.04
2022-08-19T04:24:32.299Z,20.05
2022-08-19T04:27:04.769Z,20.05
2022-08-19T04:29:32.957Z,20.04
2022-08-19T04:32:08.740Z,20.02
2022-08-19T04:34:30.838Z,20.00
2022-08-19T04:36:59.962Z,19.96
2022-08-19T04:39:49.754Z,19.96
2022-08-19T04:42:38.291Z,19.94
2022-08-19T04:45:13.704Z,19.89
2022-08-19T04:47:47.511Z,19.89
2022-08-19T04:50:15.551Z,19.95
2022-08-19T04:52:45.225Z,20.00
2022-08-19T04:55:14.192Z,20.07
2022-08-19T04:57:41.995Z,20.17
2022-08-19T05:00:11.852Z,20.28
2022-08-19T05:02:39.858Z,20.39
2022-08-19T05:05:08.241Z,20.49
2022-08-19T05:07:36.108Z,20.57
2022-08-19T05:10:06.035Z,20.65
2022-08-19T05:12:34.099Z,20.72
2022-08-19T05:15:06.301Z,20.77
2022-08-19T05:17:38.229Z,20.82
2022-08-19T05:20:25.491Z,20.88
2022-08-19T05:22:53.370Z,20.93
2022-08-19T05:25:22.672Z,21.00
2022-08-19T05:27:50.696Z,21.03
2022-08-19T05:30:18.931Z,21.08
2022-08-19T05:32:48.671Z,21.11
2022-08-19T05:35:18.013Z,21.13
2022-08-19T05:37:45.840Z,21.18
2022-08-19T05:40:13.423Z,21.22
2022-08-19T05:42:41.244Z,21.26
2022-08-19T05:45:10.196Z,21.33
2022-08-19T05:47:40.610Z,21.40
2022-08-19T05:50:08.602Z,21.49
2022-08-19T05:52:38.818Z,21.59
2022-08-19T05:55:08.628Z,21.68
2022-08-19T05:57:36.142Z,21.80
2022-08-19T06:00:08.946Z,21.91
2022-08-19T06:02:39.042Z,22.01
2022-08-19T06:05:09.571Z,22.13
2022-08-19T06:07:39.838Z,22.27
2022-08-19T06:10:11.725Z,22.37
2022-08-19T06:12:39.585Z,22.48
2022-08-19T06:15:12.253Z,22.59
2022-08-19T06:17:40.370Z,22.69
2022-08-19T06:20:13.871Z,22.78
2022-08-19T06:22:50.134Z,22.82
2022-08-19T06:25:18.089Z,22.87
2022-08-19T06:28:13.574Z,22.93
2022-08-19T06:30:16.515Z,22.99
2022-08-19T06:32:44.620Z,22.98
2022-08-19T06:35:14.347Z,23.00
2022-08-19T06:37:43.861Z,23.04
2022-08-19T06:40:13.199Z,23.11
2022-08-19T06:42:45.212Z,23.17
2022-08-19T06:45:10.913Z,23.22
2022-08-19T06:47:39.085Z,23.26
2022-08-19T06:50:07.708Z,23.29
2022-08-19T06:52:36.739Z,23.35
2022-08-19T06:55:07.286Z,23.44
2022-08-19T06:57:35.643Z,23.55
2022-08-19T07:00:07.135Z,23.64
2022-08-19T07:02:37.387Z,23.75
2022-08-19T07:05:07.770Z,23.87
2022-08-19T07:07:35.832Z,23.95
2022-08-19T07:10:07.730Z,24.00
2022-08-19T07:12:35.621Z,24.06
2022-08-19T07:15:09.264Z,24.15
2022-08-19T07:17:39.071Z,24.22
2022-08-19T07:20:09.635Z,24.28
2022-08-19T07:22:39.195Z,24.40
2022-08-19T07:25:09.839Z,24.58
2022-08-19T07:27:37.764Z,24.74
2022-08-19T07:30:12.400Z,24.94
2022-08-19T07:32:41.148Z,25.12
2022-08-19T07:35:10.440Z,25.30
2022-08-19T07:37:40.140Z,25.42
2022-08-19T07:40:09.135Z,25.49
2022-08-19T07:42:37.021Z,25.62
2022-08-19T07:45:06.988Z,25.77
2022-08-19T07:47:50.463Z,25.89
2022-08-19T07:50:08.125Z,26.02
2022-08-19T07:52:38.939Z,26.11
2022-08-19T07:55:13.651Z,26.24
2022-08-19T07:57:42.188Z,26.35
2022-08-19T08:00:10.703Z,26.51
2022-08-19T08:02:39.842Z,26.62
2022-08-19T08:05:26.626Z,26.73
2022-08-19T08:08:13.113Z,26.85
2022-08-19T08:10:41.275Z,26.93
2022-08-19T08:13:10.976Z,27.05
2022-08-19T08:15:43.300Z,27.18
2022-08-19T08:18:10.344Z,27.33
2022-08-19T08:20:39.022Z,27.48
2022-08-19T08:23:25.259Z,27.60
2022-08-19T08:25:56.199Z,27.72
2022-08-19T08:28:24.376Z,27.84
2022-08-19T08:30:52.405Z,27.95
2022-08-19T08:33:33.293Z,28.07
2022-08-19T08:35:54.313Z,28.21
2022-08-19T08:38:22.241Z,28.32
2022-08-19T08:41:00.156Z,28.45
2022-08-19T08:43:38.353Z,28.59
2022-08-19T08:46:31.482Z,28.71
2022-08-19T08:49:08.523Z,28.83
2022-08-19T08:51:45.204Z,28.99
2022-08-19T08:54:19.167Z,29.02
2022-08-19T08:56:48.969Z,29.05
2022-08-19T08:59:35.740Z,29.15
2022-08-19T09:02:05.500Z,29.22
2022-08-19T09:04:35.662Z,29.33
2022-08-19T09:07:35.072Z,29.45
2022-08-19T09:09:53.510Z,29.58
2022-08-19T09:12:47.286Z,29.70
2022-08-19T09:15:16.741Z,29.84
2022-08-19T09:17:45.182Z,29.93
2022-08-19T09:20:24.397Z,29.92
2022-08-19T09:22:53.997Z,29.87
2022-08-19T09:25:26.653Z,29.89
2022-08-19T09:28:02.405Z,29.98
2022-08-19T09:30:31.364Z,30.09
2022-08-19T09:32:59.349Z,30.21
2022-08-19T09:35:30.391Z,30.27
2022-08-19T09:38:00.951Z,30.33
2022-08-19T09:40:33.476Z,30.44
2022-08-19T09:43:03.110Z,30.46
2022-08-19T09:45:33.187Z,30.55
2022-08-19T09:48:00.754Z,30.67
2022-08-19T09:50:31.894Z,30.81
2022-08-19T09:53:01.302Z,30.81
2022-08-19T09:55:31.994Z,30.77
2022-08-19T09:58:01.514Z,30.90
2022-08-19T10:00:31.164Z,31.00
2022-08-19T10:02:59.074Z,31.12
2022-08-19T10:05:45.380Z,31.29
2022-08-19T10:08:18.176Z,31.32
2022-08-19T10:10:47.606Z,31.36
2022-08-19T10:13:21.983Z,31.49
2022-08-19T10:15:54.054Z,31.54
2022-08-19T10:18:25.777Z,31.55
2022-08-19T10:21:08.977Z,31.63
2022-08-19T10:23:38.996Z,31.60
2022-08-19T10:26:08.269Z,31.63
2022-08-19T10:28:40.244Z,31.67
2022-08-19T10:31:15.128Z,31.76
2022-08-19T10:33:54.103Z,31.93
2022-08-19T10:36:18.944Z,32.03
2022-08-19T10:38:56.660Z,32.12
2022-08-19T10:41:29.618Z,32.21
2022-08-19T10:44:04.211Z,32.39
2022-08-19T10:46:33.144Z,32.58
2022-08-19T10:49:02.914Z,32.38
2022-08-19T10:51:50.123Z,32.15
2022-08-19T10:54:31.154Z,32.03
2022-08-19T10:56:56.014Z,31.97
2022-08-19T10:59:32.602Z,32.04
2022-08-19T11:02:04.245Z,32.01
2022-08-19T11:04:32.527Z,31.87
2022-08-19T11:07:00.222Z,31.87
2022-08-19T11:09:33.972Z,31.95
2022-08-19T11:11:58.241Z,32.10
2022-08-19T11:14:29.590Z,32.14
2022-08-19T11:16:59.160Z,32.17
2022-08-19T11:19:26.824Z,32.28
2022-08-19T11:21:54.935Z,32.39
2022-08-19T11:24:27.934Z,32.40
2022-08-19T11:27:00.400Z,32.39
2022-08-19T11:29:28.276Z,32.39
2022-08-19T11:31:56.017Z,32.38
2022-08-19T11:34:28.127Z,32.35
2022-08-19T11:37:00.121Z,32.35
2022-08-19T11:39:31.593Z,32.47
2022-08-19T11:42:00.441Z,32.59
2022-08-19T11:44:29.824Z,32.69
2022-08-19T11:46:58.125Z,32.84
2022-08-19T11:49:27.696Z,32.94
2022-08-19T11:51:56.506Z,32.97
2022-08-19T11:54:24.802Z,33.03
2022-08-19T11:56:52.268Z,33.13
2022-08-19T11:59:19.909Z,33.16
2022-08-19T12:01:47.407Z,33.23
2022-08-19T12:04:15.240Z,33.32
2022-08-19T12:06:42.929Z,33.37
2022-08-19T12:09:11.487Z,33.30
2022-08-19T12:11:39.838Z,33.32
2022-08-19T12:14:14.927Z,33.41
2022-08-19T12:16:52.244Z,33.49
2022-08-19T12:19:16.096Z,33.55
2022-08-19T12:21:45.879Z,33.59
2022-08-19T12:24:13.678Z,33.56
2022-08-19T12:26:53.456Z,33.48
2022-08-19T12:29:11.624Z,33.42
2022-08-19T12:31:40.467Z,33.32
2022-08-19T12:34:08.172Z,33.16
2022-08-19T12:36:36.914Z,33.20
2022-08-19T12:39:04.881Z,33.29
2022-08-19T12:41:32.503Z,33.34
2022-08-19T12:44:00.217Z,33.31
2022-08-19T12:46:28.867Z,33.40
2022-08-19T12:48:57.673Z,33.43
2022-08-19T12:51:27.374Z,33.39
2022-08-19T12:53:55.027Z,33.42
2022-08-19T12:56:23.976Z,33.49
2022-08-19T12:58:53.049Z,33.58
2022-08-19T13:01:23.079Z,33.66
2022-08-19T13:03:54.237Z,33.72
2022-08-19T13:06:22.001Z,33.77
2022-08-19T13:08:49.645Z,33.85
2022-08-19T13:11:21.067Z,33.91
2022-08-19T13:13:52.026Z,33.94
2022-08-19T13:16:20.776Z,33.99
2022-08-19T13:18:49.689Z,34.01
2022-08-19T13:21:17.275Z,34.05
2022-08-19T13:23:47.987Z,34.04
2022-08-19T13:26:16.863Z,33.90
2022-08-19T13:29:04.511Z,33.79
2022-08-19T13:31:55.072Z,33.72
2022-08-19T13:34:36.168Z,33.74
2022-08-19T13:37:05.558Z,33.75
2022-08-19T13:39:35.220Z,33.80
2022-08-19T13:42:04.699Z,33.80
2022-08-19T13:44:33.032Z,33.85
2022-08-19T13:47:06.186Z,33.89
2022-08-19T13:49:36.363Z,33.83
2022-08-19T13:52:06.289Z,33.73
2022-08-19T13:54:33.907Z,33.73
2022-08-19T13:57:01.851Z,33.71
2022-08-19T13:59:29.625Z,33.73
2022-08-19T14:02:01.477Z,33.78
2022-08-19T14:04:29.298Z,33.80
2022-08-19T14:06:56.811Z,33.83
2022-08-19T14:09:24.585Z,33.81
2022-08-19T14:11:52.081Z,33.74
2022-08-19T14:14:19.911Z,33.68
2022-08-19T14:16:47.892Z,33.65
2022-08-19T14:19:15.743Z,33.58
2022-08-19T14:21:43.443Z,33.58
2022-08-19T14:24:11.484Z,33.60
2022-08-19T14:26:39.359Z,33.51
2022-08-19T14:29:07.112Z,33.38
2022-08-19T14:31:34.971Z,33.34
2022-08-19T14:34:02.728Z,33.39
2022-08-19T14:36:35.323Z,33.44
2022-08-19T14:39:01.755Z,33.47
2022-08-19T14:41:30.708Z,33.45
2022-08-19T14:43:59.140Z,33.45
2022-08-19T14:46:29.543Z,33.47
2022-08-19T14:48:59.243Z,33.53
2022-08-19T14:51:28.157Z,33.60
2022-08-19T14:53:56.115Z,33.62
2022-08-19T14:56:28.071Z,33.60
2022-08-19T14:58:57.519Z,33.61
2022-08-19T15:01:26.652Z,33.64
2022-08-19T15:03:55.175Z,33.69
2022-08-19T15:06:25.398Z,33.71
2022-08-19T15:08:53.713Z,33.74
2022-08-19T15:11:25.485Z,33.76
2022-08-19T15:13:53.472Z,33.74
2022-08-19T15:16:23.780Z,33.71
2022-08-19T15:18:55.523Z,33.70
2022-08-19T15:21:26.967Z,33.71
2022-08-19T15:23:57.679Z,33.72
2022-08-19T15:26:27.887Z,33.71
2022-08-19T15:28:56.565Z,33.66
2022-08-19T15:31:28.182Z,33.64
2022-08-19T15:33:59.202Z,33.61
2022-08-19T15:36:28.104Z,33.61
2022-08-19T15:38:57.403Z,33.63
2022-08-19T15:41:30.176Z,33.59
2022-08-19T15:44:09.698Z,33.52
2022-08-19T15:46:40.728Z,33.48
2022-08-19T15:49:10.375Z,33.42
2022-08-19T15:51:41.510Z,33.38
2022-08-19T15:54:14.546Z,33.32
2022-08-19T15:56:47.462Z,33.25
2022-08-19T15:59:35.551Z,33.18
2022-08-19T16:02:23.563Z,33.09
2022-08-19T16:05:12.137Z,32.96
2022-08-19T16:07:39.872Z,32.78
2022-08-19T16:10:27.134Z,32.61
2022-08-19T16:12:38.785Z,32.52
2022-08-19T16:15:10.593Z,32.40
2022-08-19T16:17:40.356Z,32.28
2022-08-19T16:20:10.546Z,32.19
2022-08-19T16:22:40.391Z,32.11
2022-08-19T16:25:09.649Z,32.04
2022-08-19T16:27:39.816Z,31.94
2022-08-19T16:30:09.249Z,31.87
2022-08-19T16:32:36.797Z,31.78
2022-08-19T16:35:06.831Z,31.71
2022-08-19T16:37:34.589Z,31.64
2022-08-19T16:40:02.652Z,31.55
2022-08-19T16:42:30.739Z,31.49
2022-08-19T16:44:58.339Z,31.42
2022-08-19T16:47:25.891Z,31.34
2022-08-19T16:49:55.498Z,31.25
2022-08-19T16:52:25.086Z,31.13
2022-08-19T16:54:53.825Z,31.01
2022-08-19T16:57:23.418Z,30.88
2022-08-19T16:59:51.813Z,30.73
2022-08-19T17:02:22.905Z,30.60
2022-08-19T17:04:57.726Z,30.44
2022-08-19T17:07:21.511Z,30.27
2022-08-19T17:09:50.212Z,30.11
2022-08-19T17:12:18.396Z,29.96
2022-08-19T17:14:45.975Z,29.81
2022-08-19T17:17:14.212Z,29.68
2022-08-19T17:19:42.931Z,29.54
2022-08-19T17:22:12.642Z,29.42
2022-08-19T17:24:41.095Z,29.26
2022-08-19T17:27:08.903Z,29.11
2022-08-19T17:29:36.722Z,28.98
2022-08-19T17:32:05.540Z,28.88
2022-08-19T17:34:33.204Z,28.75
2022-08-19T17:37:00.789Z,28.63
2022-08-19T17:39:28.810Z,28.52
2022-08-19T17:41:57.022Z,28.37
2022-08-19T17:44:26.623Z,28.24
2022-08-19T17:46:55.698Z,28.12
2022-08-19T17:49:23.479Z,28.01
2022-08-19T17:51:51.929Z,27.89
2022-08-19T17:54:19.761Z,27.81
2022-08-19T17:56:47.932Z,27.71
2022-08-19T17:59:15.908Z,27.63
2022-08-19T18:01:53.138Z,27.54
2022-08-19T18:04:16.459Z,27.48
2022-08-19T18:06:46.906Z,27.39
2022-08-19T18:09:14.055Z,27.30
2022-08-19T18:11:43.425Z,27.22
2022-08-19T18:14:12.862Z,27.14
2022-08-19T18:16:40.635Z,27.07
2022-08-19T18:19:08.508Z,27.03
2022-08-19T18:21:36.016Z,27.00
2022-08-19T18:24:04.213Z,26.94
2022-08-19T18:26:32.211Z,26.90
2022-08-19T18:29:01.372Z,26.87
2022-08-19T18:31:29.499Z,26.81
2022-08-19T18:33:57.992Z,26.76
2022-08-19T18:36:52.098Z,26.68
2022-08-19T18:39:15.347Z,26.62
2022-08-19T18:42:01.940Z,26.53
2022-08-19T18:44:47.987Z,26.46
2022-08-19T18:47:34.372Z,26.40
2022-08-19T18:50:04.251Z,26.33
2022-08-19T18:52:36.415Z,26.22
2022-08-19T18:55:06.778Z,26.15
2022-08-19T18:57:34.949Z,26.09
2022-08-19T19:00:04.586Z,26.04
2022-08-19T19:02:38.651Z,26.00
2022-08-19T19:05:07.745Z,25.97
2022-08-19T19:07:35.563Z,25.93
2022-08-19T19:10:04.518Z,25.89
2022-08-19T19:12:37.266Z,25.86
2022-08-19T19:15:06.058Z,25.83
2022-08-19T19:17:33.852Z,25.78
2022-08-19T19:20:01.529Z,25.76
2022-08-19T19:22:29.388Z,25.70
2022-08-19T19:24:58.858Z,25.67
2022-08-19T19:27:26.774Z,25.66
2022-08-19T19:29:55.234Z,25.64
2022-08-19T19:32:33.058Z,25.64
2022-08-19T19:35:00.929Z,25.66
2022-08-19T19:37:28.773Z,25.68
2022-08-19T19:39:56.432Z,25.70
2022-08-19T19:42:24.253Z,25.72
2022-08-19T19:44:55.131Z,25.69
2022-08-19T19:47:23.861Z,25.65
2022-08-19T19:50:13.139Z,25.60
2022-08-19T19:52:23.052Z,25.55
2022-08-19T19:54:50.460Z,25.50
2022-08-19T19:57:18.183Z,25.44
2022-08-19T19:59:51.694Z,25.39
2022-08-19T20:02:16.996Z,25.35
2022-08-19T20:04:44.463Z,25.28
2022-08-19T20:07:12.148Z,25.23
2022-08-19T20:09:58.722Z,25.19
2022-08-19T20:12:09.972Z,25.14
2022-08-19T20:14:38.018Z,25.10
2022-08-19T20:17:06.691Z,25.04
2022-08-19T20:19:36.294Z,24.99
2022-08-19T20:22:06.217Z,24.93
2022-08-19T20:24:35.740Z,24.90
2022-08-19T20:27:04.972Z,24.83
2022-08-19T20:29:39.381Z,24.78
2022-08-19T20:32:02.916Z,24.75
2022-08-19T20:34:31.637Z,24.72
2022-08-19T20:36:59.290Z,24.70
2022-08-19T20:39:26.980Z,24.70
2022-08-19T20:41:55.904Z,24.71
2022-08-19T20:44:24.768Z,24.75
2022-08-19T20:46:54.579Z,24.76
2022-08-19T20:49:26.977Z,24.74
2022-08-19T20:51:54.041Z,24.76
2022-08-19T20:54:22.003Z,24.73
2022-08-19T20:56:50.534Z,24.67
2022-08-19T20:59:19.604Z,24.64
2022-08-19T21:01:48.362Z,24.60
2022-08-19T21:04:16.006Z,24.56
2022-08-19T21:06:45.347Z,24.50
2022-08-19T21:09:13.556Z,24.43
2022-08-19T21:11:41.761Z,24.36
2022-08-19T21:14:10.190Z,24.32
2022-08-19T21:16:37.889Z,24.28
2022-08-19T21:19:05.706Z,24.25
2022-08-19T21:21:34.403Z,24.21
2022-08-19T21:24:02.114Z,24.19
2022-08-19T21:26:29.741Z,24.17
2022-08-19T21:28:57.543Z,24.14
2022-08-19T21:31:25.109Z,24.10
2022-08-19T21:33:53.002Z,24.07
2022-08-19T21:36:20.687Z,24.04
2022-08-19T21:38:48.375Z,24.00
2022-08-19T21:41:16.097Z,23.94
2022-08-19T21:43:43.927Z,23.91
2022-08-19T21:46:11.606Z,23.87
2022-08-19T21:48:39.308Z,23.82
2022-08-19T21:51:08.157Z,23.79
2022-08-19T21:53:36.748Z,23.78
2022-08-19T21:56:06.887Z,23.80
2022-08-19T21:58:38.560Z,23.81
2022-08-19T22:01:07.437Z,23.80
2022-08-19T22:03:37.558Z,23.80
2022-08-19T22:06:06.103Z,23.81
2022-08-19T22:08:33.796Z,23.85
2022-08-19T22:11:03.655Z,23.87
2022-08-19T22:13:39.563Z,23.88
2022-08-19T22:16:07.083Z,23.90
2022-08-19T22:18:34.919Z,23.87
2022-08-19T22:21:06.354Z,23.80
2022-08-19T22:23:34.102Z,23.79
2022-08-19T22:26:02.441Z,23.76
2022-08-19T22:28:30.111Z,23.69
2022-08-19T22:30:58.090Z,23.66
2022-08-19T22:33:27.211Z,23.62
2022-08-19T22:35:55.516Z,23.56
2022-08-19T22:38:24.085Z,23.51
2022-08-19T22:40:53.105Z,23.45
2022-08-19T22:43:25.723Z,23.40
2022-08-19T22:45:55.085Z,23.35
2022-08-19T22:48:27.634Z,23.32
2022-08-19T22:51:14.716Z,23.31
2022-08-19T22:53:45.112Z,23.28
2022-08-19T22:56:15.592Z,23.24
2022-08-19T22:58:44.457Z,23.19
2022-08-19T23:01:27.423Z,23.14
2022-08-19T23:03:46.877Z,23.09
2022-08-19T23:06:14.979Z,23.03
2022-08-19T23:08:44.242Z,22.98
2022-08-19T23:11:12.026Z,22.94
2022-08-19T23:13:41.237Z,22.94
2022-08-19T23:16:09.306Z,22.97
2022-08-19T23:18:36.800Z,22.98
2022-08-19T23:21:07.806Z,23.01
2022-08-19T23:23:37.124Z,23.02
2022-08-19T23:26:06.822Z,23.07
2022-08-19T23:28:54.941Z,23.09
2022-08-19T23:31:22.564Z,23.10
2022-08-19T23:33:51.601Z,23.11
2022-08-19T23:36:22.043Z,23.11
2022-08-19T23:38:54.212Z,23.09
2022-08-19T23:41:22.942Z,23.04
2022-08-19T23:43:54.789Z,22.99
2022-08-19T23:46:27.524Z,22.96
2022-08-19T23:48:50.816Z,22.91
2022-08-19T23:51:18.872Z,22.87
2022-08-19T23:53:46.654Z,22.81
2022-08-19T23:56:14.505Z,22.75
2022-08-19T23:58:42.169Z,22.68
